Schedule Details


Flight Number: CTN491
Departure: Heathrow (EGLL) at 11:50
Arrival: Krk Island (LDRI) at 15:05
Route: DET UL6 DVR UL9 KONAN UL607 ILB Y560 ARMIX

Weather Information
EGLL 211350Z AUTO 23007KT 170V270 9999 SCT041 27/13 Q1018 NOSIG
LDRI 211400Z VRB03KT 9999 FEW070 33/14 Q1014
Schedule Frequency

Route Map